Time,TemperatureF,DewpointF,PressureIn,WindDirection,WindDirectionDegrees,WindSpeedMPH,WindSpeedGustMPH,Humidity,HourlyPrecipIn,Conditions,Clouds,dailyrainin,SoftwareType,DateUTC
2013-03-17 00:04:00,53.6,44.1,29.99,North,0,0.0,0.0,70,0.00,,,0.00,WUHU216HW,2013-03-17 07:04:00,
2013-03-17 00:09:00,53.6,44.5,29.99,North,0,0.0,0.0,71,0.00,,,0.00,WUHU216HW,2013-03-17 07:09:00,
2013-03-17 00:14:00,53.5,44.6,30.00,North,0,0.0,0.0,72,0.00,,,0.00,WUHU216HW,2013-03-17 07:14:00,
2013-03-17 00:19:00,53.3,44.5,30.00,North,0,0.0,0.0,72,0.00,,,0.00,WUHU216HW,2013-03-17 07:19:00,
2013-03-17 00:24:00,53.1,44.3,29.98,North,0,0.0,0.0,72,0.00,,,0.00,WUHU216HW,2013-03-17 07:24:00,
2013-03-17 00:29:00,52.9,44.2,29.99,North,0,0.0,0.0,72,0.00,,,0.00,WUHU216HW,2013-03-17 07:29:00,
2013-03-17 00:34:00,52.9,44.6,30.00,North,0,0.0,0.0,73,0.00,,,0.00,WUHU216HW,2013-03-17 07:34:00,
2013-03-17 00:39:00,52.7,44.4,29.99,North,0,0.0,0.0,73,0.00,,,0.00,WUHU216HW,2013-03-17 07:39:00,
2013-03-17 00:44:00,52.6,44.6,29.98,North,0,0.0,0.0,74,0.00,,,0.00,WUHU216HW,2013-03-17 07:44:00,
2013-03-17 00:49:00,52.6,44.6,29.99,North,0,0.0,0.0,74,0.00,,,0.00,WUHU216HW,2013-03-17 07:49:00,
2013-03-17 00:55:00,52.6,44.6,29.99,North,0,0.0,0.0,74,0.00,,,0.00,WUHU216HW,2013-03-17 07:55:00,
2013-03-17 01:00:00,52.4,44.4,29.99,North,0,0.0,0.0,74,0.00,,,0.00,WUHU216HW,2013-03-17 08:00:00,
2013-03-17 01:05:00,52.4,44.4,29.99,North,0,0.0,0.0,74,0.00,,,0.00,WUHU216HW,2013-03-17 08:05:00,
2013-03-17 01:10:00,52.2,44.2,29.99,North,0,0.0,0.0,74,0.00,,,0.00,WUHU216HW,2013-03-17 08:10:00,
2013-03-17 01:15:00,52.2,44.6,30.00,North,0,0.0,0.0,75,0.00,,,0.00,WUHU216HW,2013-03-17 08:15:00,
2013-03-17 01:20:00,52.2,44.6,29.99,North,0,0.0,0.0,75,0.00,,,0.00,WUHU216HW,2013-03-17 08:20:00,
2013-03-17 01:25:00,52.4,44.7,30.00,North,0,0.0,0.0,75,0.00,,,0.00,WUHU216HW,2013-03-17 08:25:00,
2013-03-17 01:30:00,52.2,44.2,30.00,North,0,0.0,0.0,74,0.00,,,0.00,WUHU216HW,2013-03-17 08:30:00,
2013-03-17 01:35:00,52.2,44.2,30.00,North,0,0.0,0.0,74,0.00,,,0.00,WUHU216HW,2013-03-17 08:35:00,
2013-03-17 01:40:00,51.8,44.2,30.00,North,0,0.0,0.0,75,0.00,,,0.00,WUHU216HW,2013-03-17 08:40:00,
2013-03-17 01:45:00,51.7,44.0,30.00,North,0,0.0,0.0,75,0.00,,,0.00,WUHU216HW,2013-03-17 08:45:00,
2013-03-17 01:50:00,51.7,44.0,30.00,North,0,0.0,0.0,75,0.00,,,0.00,WUHU216HW,2013-03-17 08:50:00,
2013-03-17 01:55:00,51.5,43.8,29.99,North,0,0.0,0.0,75,0.00,,,0.00,WUHU216HW,2013-03-17 08:55:00,
2013-03-17 02:00:00,51.5,43.8,29.99,North,0,0.0,0.0,75,0.00,,,0.00,WUHU216HW,2013-03-17 09:00:00,
2013-03-17 02:05:00,51.5,43.8,30.00,North,0,0.0,0.0,75,0.00,,,0.00,WUHU216HW,2013-03-17 09:05:00,
2013-03-17 02:11:00,51.5,43.8,30.00,North,0,0.0,0.0,75,0.00,,,0.00,WUHU216HW,2013-03-17 09:11:00,
2013-03-17 02:16:00,51.5,43.8,30.00,North,0,0.0,0.0,75,0.00,,,0.00,WUHU216HW,2013-03-17 09:16:00,
2013-03-17 02:21:00,51.3,43.7,30.00,North,0,0.0,0.0,75,0.00,,,0.00,WUHU216HW,2013-03-17 09:21:00,
2013-03-17 02:26:00,51.1,43.5,30.00,North,0,0.0,0.0,75,0.00,,,0.00,WUHU216HW,2013-03-17 09:26:00,
2013-03-17 02:31:00,50.9,43.3,30.00,North,0,0.0,0.0,75,0.00,,,0.00,WUHU216HW,2013-03-17 09:31:00,
2013-03-17 02:36:00,50.8,43.5,30.00,North,0,0.0,0.0,76,0.00,,,0.00,WUHU216HW,2013-03-17 09:36:00,
2013-03-17 02:41:00,50.8,43.5,30.00,North,0,0.0,0.0,76,0.00,,,0.00,WUHU216HW,2013-03-17 09:41:00,
2013-03-17 02:46:00,50.6,43.3,30.00,North,0,0.0,0.0,76,0.00,,,0.00,WUHU216HW,2013-03-17 09:46:00,
2013-03-17 02:52:00,50.4,43.1,30.00,North,0,0.0,0.0,76,0.00,,,0.00,WUHU216HW,2013-03-17 09:52:00,
2013-03-17 02:57:00,50.4,43.5,30.00,North,0,0.0,0.0,77,0.00,,,0.00,WUHU216HW,2013-03-17 09:57:00,
2013-03-17 03:02:00,50.2,43.3,30.00,North,0,0.0,0.0,77,0.00,,,0.00,WUHU216HW,2013-03-17 10:02:00,
2013-03-17 03:07:00,50.0,43.1,30.00,North,0,0.0,0.0,77,0.00,,,0.00,WUHU216HW,2013-03-17 10:07:00,
2013-03-17 03:12:00,50.0,43.1,30.00,North,0,0.0,0.0,77,0.00,,,0.00,WUHU216HW,2013-03-17 10:12:00,
2013-03-17 03:17:00,49.9,42.9,30.00,North,0,0.0,0.0,77,0.00,,,0.00,WUHU216HW,2013-03-17 10:17:00,
2013-03-17 03:22:00,49.7,42.8,30.00,North,0,0.0,0.0,77,0.00,,,0.00,WUHU216HW,2013-03-17 10:22:00,
2013-03-17 03:27:00,49.5,42.8,30.00,North,0,0.0,0.0,78,0.00,,,0.00,WUHU216HW,2013-03-17 10:27:00,
2013-03-17 03:32:00,49.3,42.7,30.00,North,0,0.0,0.0,78,0.00,,,0.00,WUHU216HW,2013-03-17 10:32:00,
2013-03-17 03:37:00,49.1,42.5,30.01,North,0,0.0,0.0,78,0.00,,,0.00,WUHU216HW,2013-03-17 10:37:00,
2013-03-17 03:42:00,49.0,42.3,30.00,North,0,0.0,0.0,78,0.00,,,0.00,WUHU216HW,2013-03-17 10:42:00,
2013-03-17 03:47:00,49.0,42.3,30.00,North,0,0.0,0.0,78,0.00,,,0.00,WUHU216HW,2013-03-17 10:47:00,
2013-03-17 03:52:00,48.8,42.1,30.00,North,0,0.0,0.0,78,0.00,,,0.00,WUHU216HW,2013-03-17 10:52:00,
2013-03-17 03:57:00,48.8,42.5,30.00,North,0,0.0,0.0,79,0.00,,,0.00,WUHU216HW,2013-03-17 10:57:00,
2013-03-17 04:02:00,48.6,42.3,30.00,North,0,0.0,0.0,79,0.00,,,0.00,WUHU216HW,2013-03-17 11:02:00,
2013-03-17 04:07:00,48.6,42.3,30.00,North,0,0.0,0.0,79,0.00,,,0.00,WUHU216HW,2013-03-17 11:07:00,
2013-03-17 04:13:00,48.4,42.1,30.00,North,0,0.0,0.0,79,0.00,,,0.00,WUHU216HW,2013-03-17 11:13:00,
2013-03-17 04:18:00,48.2,41.9,29.99,North,0,0.0,0.0,79,0.00,,,0.00,WUHU216HW,2013-03-17 11:18:00,
2013-03-17 04:23:00,48.2,41.9,29.99,North,0,0.0,0.0,79,0.00,,,0.00,WUHU216HW,2013-03-17 11:23:00,
2013-03-17 04:28:00,48.1,41.8,29.99,North,0,0.0,0.0,79,0.00,,,0.00,WUHU216HW,2013-03-17 11:28:00,
2013-03-17 04:33:00,47.9,41.7,29.99,North,0,0.0,0.0,79,0.00,,,0.00,WUHU216HW,2013-03-17 11:33:00,
2013-03-17 04:38:00,47.9,41.9,29.98,North,0,0.0,0.0,80,0.00,,,0.00,WUHU216HW,2013-03-17 11:38:00,
2013-03-17 04:43:00,47.9,41.9,29.99,North,0,0.0,0.0,80,0.00,,,0.00,WUHU216HW,2013-03-17 11:43:00,
2013-03-17 04:48:00,47.7,41.5,29.98,North,0,0.0,0.0,79,0.00,,,0.00,WUHU216HW,2013-03-17 11:48:00,
2013-03-17 04:53:00,47.5,41.7,29.98,North,0,0.0,0.0,80,0.00,,,0.00,WUHU216HW,2013-03-17 11:53:00,
2013-03-17 04:58:00,47.3,41.5,29.99,North,0,0.0,0.0,80,0.00,,,0.00,WUHU216HW,2013-03-17 11:58:00,
2013-03-17 05:03:00,47.2,41.3,29.99,North,0,0.0,0.0,80,0.00,,,0.00,WUHU216HW,2013-03-17 12:03:00,
2013-03-17 05:08:00,47.0,40.9,29.99,North,0,0.0,0.0,79,0.00,,,0.00,WUHU216HW,2013-03-17 12:08:00,
2013-03-17 05:13:00,46.8,40.7,29.99,North,0,0.0,0.0,79,0.00,,,0.00,WUHU216HW,2013-03-17 12:13:00,
2013-03-17 05:18:00,46.8,40.7,29.99,North,0,0.0,0.0,79,0.00,,,0.00,WUHU216HW,2013-03-17 12:18:00,
2013-03-17 05:23:00,46.6,40.5,30.00,North,0,0.0,0.0,79,0.00,,,0.00,WUHU216HW,2013-03-17 12:23:00,
2013-03-17 05:28:00,46.4,40.3,30.00,North,0,0.0,0.0,79,0.00,,,0.00,WUHU216HW,2013-03-17 12:28:00,
2013-03-17 05:33:00,46.4,40.3,30.00,North,0,0.0,0.0,79,0.00,,,0.00,WUHU216HW,2013-03-17 12:33:00,
2013-03-17 05:39:00,46.3,40.1,29.99,North,0,0.0,0.0,79,0.00,,,0.00,WUHU216HW,2013-03-17 12:39:00,
2013-03-17 05:44:00,46.1,40.0,29.99,North,0,0.0,0.0,79,0.00,,,0.00,WUHU216HW,2013-03-17 12:44:00,
2013-03-17 05:49:00,45.9,39.8,29.99,North,0,0.0,0.0,79,0.00,,,0.00,WUHU216HW,2013-03-17 12:49:00,
2013-03-17 05:54:00,45.7,39.6,29.99,North,0,0.0,0.0,79,0.00,,,0.00,WUHU216HW,2013-03-17 12:54:00,
2013-03-17 05:59:00,45.7,40.0,29.99,North,0,0.0,0.0,80,0.00,,,0.00,WUHU216HW,2013-03-17 12:59:00,
2013-03-17 06:04:00,45.5,39.8,29.99,North,0,0.0,0.0,80,0.00,,,0.00,WUHU216HW,2013-03-17 13:04:00,
2013-03-17 06:09:00,45.5,39.8,29.99,North,0,0.0,0.0,80,0.00,,,0.00,WUHU216HW,2013-03-17 13:09:00,
2013-03-17 06:14:00,45.4,39.6,29.99,North,0,0.0,0.0,80,0.00,,,0.00,WUHU216HW,2013-03-17 13:14:00,
2013-03-17 06:19:00,45.2,39.4,29.99,North,0,0.0,0.0,80,0.00,,,0.00,WUHU216HW,2013-03-17 13:19:00,
2013-03-17 06:24:00,45.0,39.2,30.00,North,0,0.0,0.0,80,0.00,,,0.00,WUHU216HW,2013-03-17 13:24:00,
2013-03-17 06:29:00,44.8,39.1,29.99,North,0,0.0,0.0,80,0.00,,,0.00,WUHU216HW,2013-03-17 13:29:00,
2013-03-17 06:34:00,44.8,39.1,30.00,North,0,0.0,0.0,80,0.00,,,0.00,WUHU216HW,2013-03-17 13:34:00,
2013-03-17 06:39:00,44.6,38.9,30.00,North,0,0.0,0.0,80,0.00,,,0.00,WUHU216HW,2013-03-17 13:39:00,
2013-03-17 06:44:00,44.5,39.0,30.00,North,0,0.0,0.0,81,0.00,,,0.00,WUHU216HW,2013-03-17 13:44:00,
2013-03-17 06:50:00,44.3,38.5,30.01,North,0,0.0,0.0,80,0.00,,,0.00,WUHU216HW,2013-03-17 13:50:00,
2013-03-17 06:55:00,44.3,38.8,30.01,North,0,0.0,0.0,81,0.00,,,0.00,WUHU216HW,2013-03-17 13:55:00,
2013-03-17 07:00:00,44.3,38.8,30.01,North,0,0.0,0.0,81,0.00,,,0.00,WUHU216HW,2013-03-17 14:00:00,
2013-03-17 07:05:00,44.1,38.6,30.01,North,0,0.0,0.0,81,0.00,,,0.00,WUHU216HW,2013-03-17 14:05:00,
2013-03-17 07:10:00,43.9,38.4,30.01,North,0,0.0,0.0,81,0.00,,,0.00,WUHU216HW,2013-03-17 14:10:00,
2013-03-17 07:15:00,43.9,38.4,30.01,North,0,0.0,0.0,81,0.00,,,0.00,WUHU216HW,2013-03-17 14:15:00,
2013-03-17 07:20:00,43.7,38.3,30.01,North,0,0.0,0.0,81,0.00,,,0.00,WUHU216HW,2013-03-17 14:20:00,
2013-03-17 07:25:00,43.7,38.3,30.02,North,0,0.0,0.0,81,0.00,,,0.00,WUHU216HW,2013-03-17 14:25:00,
2013-03-17 07:30:00,43.7,38.3,30.02,North,0,0.0,0.0,81,0.00,,,0.00,WUHU216HW,2013-03-17 14:30:00,
2013-03-17 07:35:00,43.6,38.1,30.03,North,0,0.0,0.0,81,0.00,,,0.00,WUHU216HW,2013-03-17 14:35:00,
2013-03-17 07:40:00,43.6,38.1,30.03,North,0,0.0,0.0,81,0.00,,,0.00,WUHU216HW,2013-03-17 14:40:00,
2013-03-17 07:45:00,43.6,38.4,30.03,North,0,0.0,0.0,82,0.00,,,0.00,WUHU216HW,2013-03-17 14:45:00,
2013-03-17 07:51:00,43.6,38.4,30.03,North,0,0.0,0.0,82,0.00,,,0.00,WUHU216HW,2013-03-17 14:51:00,
2013-03-17 07:56:00,43.6,38.4,30.03,North,0,0.0,0.0,82,0.00,,,0.00,WUHU216HW,2013-03-17 14:56:00,
2013-03-17 08:01:00,43.6,38.4,30.03,North,0,0.0,0.0,82,0.00,,,0.00,WUHU216HW,2013-03-17 15:01:00,
2013-03-17 08:06:00,43.7,38.6,30.03,North,0,0.0,0.0,82,0.00,,,0.00,WUHU216HW,2013-03-17 15:06:00,
2013-03-17 08:11:00,43.9,39.1,30.03,North,0,0.0,0.0,83,0.00,,,0.00,WUHU216HW,2013-03-17 15:11:00,
2013-03-17 08:16:00,44.1,39.2,30.03,North,0,0.0,0.0,83,0.00,,,0.00,WUHU216HW,2013-03-17 15:16:00,
2013-03-17 08:21:00,44.3,39.4,30.03,North,0,0.0,0.0,83,0.00,,,0.00,WUHU216HW,2013-03-17 15:21:00,
2013-03-17 08:27:00,44.5,39.6,30.03,North,0,0.0,0.0,83,0.00,,,0.00,WUHU216HW,2013-03-17 15:27:00,
2013-03-17 08:32:00,44.6,39.8,30.03,North,0,0.0,0.0,83,0.00,,,0.00,WUHU216HW,2013-03-17 15:32:00,
2013-03-17 08:37:00,45.0,40.1,30.03,North,0,0.0,0.0,83,0.00,,,0.00,WUHU216HW,2013-03-17 15:37:00,
2013-03-17 08:42:00,45.2,40.3,30.03,North,0,0.0,0.0,83,0.00,,,0.00,WUHU216HW,2013-03-17 15:42:00,
2013-03-17 08:47:00,45.4,40.5,30.03,North,0,0.0,0.0,83,0.00,,,0.00,WUHU216HW,2013-03-17 15:47:00,
2013-03-17 08:52:00,45.7,40.9,30.03,North,0,0.0,0.0,83,0.00,,,0.00,WUHU216HW,2013-03-17 15:52:00,
2013-03-17 08:57:00,45.9,41.0,30.03,North,0,0.0,0.0,83,0.00,,,0.00,WUHU216HW,2013-03-17 15:57:00,
2013-03-17 09:02:00,46.4,42.0,30.03,North,0,0.0,0.0,84,0.00,,,0.00,WUHU216HW,2013-03-17 16:02:00,
2013-03-17 09:07:00,46.8,42.2,30.03,North,0,0.0,0.0,84,0.00,,,0.00,WUHU216HW,2013-03-17 16:07:00,
2013-03-17 09:12:00,47.2,42.9,30.03,North,0,0.0,0.0,85,0.00,,,0.00,WUHU216HW,2013-03-17 16:12:00,
2013-03-17 09:17:00,47.5,42.9,30.03,North,0,0.0,0.0,84,0.00,,,0.00,WUHU216HW,2013-03-17 16:17:00,
2013-03-17 09:23:00,47.9,43.3,30.03,North,0,0.0,0.0,84,0.00,,,0.00,WUHU216HW,2013-03-17 16:23:00,
2013-03-17 09:28:00,48.4,43.7,30.03,North,0,0.0,0.0,84,0.00,,,0.00,WUHU216HW,2013-03-17 16:28:00,
2013-03-17 09:33:00,48.8,43.8,30.03,North,0,0.0,0.0,83,0.00,,,0.00,WUHU216HW,2013-03-17 16:33:00,
2013-03-17 09:38:00,49.1,44.1,30.03,North,0,0.0,0.0,83,0.00,,,0.00,WUHU216HW,2013-03-17 16:38:00,
2013-03-17 09:43:00,49.5,44.8,30.03,North,0,0.0,0.0,84,0.00,,,0.00,WUHU216HW,2013-03-17 16:43:00,
2013-03-17 09:48:00,50.0,45.0,30.03,North,0,0.0,0.0,83,0.00,,,0.00,WUHU216HW,2013-03-17 16:48:00,
2013-03-17 09:53:00,50.4,45.4,30.03,North,0,0.0,0.0,83,0.00,,,0.00,WUHU216HW,2013-03-17 16:53:00,
2013-03-17 09:58:00,50.8,45.5,30.03,North,0,0.0,0.0,82,0.00,,,0.00,WUHU216HW,2013-03-17 16:58:00,
2013-03-17 10:03:00,51.3,46.0,30.03,North,0,0.0,0.0,82,0.00,,,0.00,WUHU216HW,2013-03-17 17:03:00,
2013-03-17 10:08:00,51.7,46.0,30.03,North,0,0.0,0.0,81,0.00,,,0.00,WUHU216HW,2013-03-17 17:08:00,
2013-03-17 10:13:00,52.2,46.3,30.03,North,0,0.0,0.0,80,0.00,,,0.00,WUHU216HW,2013-03-17 17:13:00,
2013-03-17 10:18:00,52.6,46.3,30.03,North,0,0.0,0.0,79,0.00,,,0.00,WUHU216HW,2013-03-17 17:18:00,
2013-03-17 10:23:00,52.9,46.3,30.03,North,0,0.0,0.0,78,0.00,,,0.00,WUHU216HW,2013-03-17 17:23:00,
2013-03-17 10:28:00,53.3,46.3,30.03,North,0,0.0,0.0,77,0.00,,,0.00,WUHU216HW,2013-03-17 17:28:00,
2013-03-17 10:33:00,53.6,46.6,30.03,North,0,0.0,0.0,77,0.00,,,0.00,WUHU216HW,2013-03-17 17:33:00,
2013-03-17 10:38:00,54.2,46.8,30.03,North,0,0.0,0.0,76,0.00,,,0.00,WUHU216HW,2013-03-17 17:38:00,
2013-03-17 10:43:00,54.5,47.4,30.04,North,0,0.0,0.0,77,0.00,,,0.00,WUHU216HW,2013-03-17 17:43:00,
2013-03-17 10:49:00,55.1,47.6,30.03,North,0,0.0,0.0,76,0.00,,,0.00,WUHU216HW,2013-03-17 17:49:00,
2013-03-17 10:54:00,55.4,47.6,30.04,North,0,0.0,0.0,75,0.00,,,0.00,WUHU216HW,2013-03-17 17:54:00,
2013-03-17 10:59:00,56.0,47.8,30.04,North,0,0.0,0.0,74,0.00,,,0.00,WUHU216HW,2013-03-17 17:59:00,
2013-03-17 11:04:00,56.3,47.8,30.03,North,0,0.0,0.0,73,0.00,,,0.00,WUHU216HW,2013-03-17 18:04:00,
2013-03-17 11:09:00,56.7,48.1,30.03,North,0,0.0,0.0,73,0.00,,,0.00,WUHU216HW,2013-03-17 18:09:00,
2013-03-17 11:14:00,57.1,48.1,30.03,North,0,0.0,0.0,72,0.00,,,0.00,WUHU216HW,2013-03-17 18:14:00,
2013-03-17 11:19:00,57.4,47.7,30.03,North,0,0.0,0.0,70,0.00,,,0.00,WUHU216HW,2013-03-17 18:19:00,
2013-03-17 11:24:00,58.0,47.9,30.03,North,0,0.0,0.0,69,0.00,,,0.00,WUHU216HW,2013-03-17 18:24:00,
2013-03-17 11:29:00,58.3,47.8,30.02,North,0,0.0,0.0,68,0.00,,,0.00,WUHU216HW,2013-03-17 18:29:00,
2013-03-17 11:34:00,58.5,47.5,30.02,North,0,0.0,0.0,67,0.00,,,0.00,WUHU216HW,2013-03-17 18:34:00,
2013-03-17 11:39:00,58.9,47.5,30.03,North,0,0.0,0.0,66,0.00,,,0.00,WUHU216HW,2013-03-17 18:39:00,
2013-03-17 11:44:00,59.0,47.7,30.02,North,0,0.0,0.0,66,0.00,,,0.00,WUHU216HW,2013-03-17 18:44:00,
2013-03-17 11:49:00,59.4,47.2,30.02,North,0,0.0,0.0,64,0.00,,,0.00,WUHU216HW,2013-03-17 18:49:00,
2013-03-17 11:55:00,59.8,48.0,30.02,North,0,0.0,0.0,65,0.00,,,0.00,WUHU216HW,2013-03-17 18:55:00,
2013-03-17 11:59:00,60.1,48.3,30.02,North,0,0.0,0.0,65,0.00,,,0.00,WUHU216HW,2013-03-17 18:59:00,
2013-03-17 12:05:00,60.7,48.4,30.02,North,0,0.0,0.0,64,0.00,,,0.00,WUHU216HW,2013-03-17 19:05:00,
2013-03-17 12:10:00,61.0,48.0,30.01,North,0,0.0,0.0,62,0.00,,,0.00,WUHU216HW,2013-03-17 19:10:00,
2013-03-17 12:15:00,61.4,48.3,30.01,North,0,0.0,0.0,62,0.00,,,0.00,WUHU216HW,2013-03-17 19:15:00,
2013-03-17 12:20:00,61.6,48.1,30.01,North,0,0.0,0.0,61,0.00,,,0.00,WUHU216HW,2013-03-17 19:20:00,
2013-03-17 12:25:00,61.7,47.8,30.01,North,0,0.0,0.0,60,0.00,,,0.00,WUHU216HW,2013-03-17 19:25:00,
2013-03-17 12:30:00,61.9,47.4,30.01,North,0,0.0,0.0,59,0.00,,,0.00,WUHU216HW,2013-03-17 19:30:00,
2013-03-17 12:35:00,62.3,47.8,30.01,North,0,0.0,0.0,59,0.00,,,0.00,WUHU216HW,2013-03-17 19:35:00,
2013-03-17 12:40:00,63.0,48.0,30.00,North,0,0.0,0.0,58,0.00,,,0.00,WUHU216HW,2013-03-17 19:40:00,
2013-03-17 12:45:00,63.5,48.0,30.00,North,0,0.0,0.0,57,0.00,,,0.00,WUHU216HW,2013-03-17 19:45:00,
2013-03-17 12:50:00,63.9,47.8,30.00,North,0,0.0,0.0,56,0.00,,,0.00,WUHU216HW,2013-03-17 19:50:00,
2013-03-17 12:55:00,64.3,47.6,30.00,North,0,0.0,0.0,55,0.00,,,0.00,WUHU216HW,2013-03-17 19:55:00,
2013-03-17 13:00:00,64.4,47.4,30.00,North,0,0.0,0.0,54,0.00,,,0.00,WUHU216HW,2013-03-17 20:00:00,
2013-03-17 13:05:00,64.8,47.2,29.99,North,0,0.0,0.0,53,0.00,,,0.00,WUHU216HW,2013-03-17 20:05:00,
2013-03-17 13:10:00,65.2,48.1,29.99,North,0,0.0,0.0,54,0.00,,,0.00,WUHU216HW,2013-03-17 20:10:00,
2013-03-17 13:15:00,65.9,48.2,29.99,North,0,0.0,0.0,53,0.00,,,0.00,WUHU216HW,2013-03-17 20:15:00,
2013-03-17 13:21:00,66.4,48.8,29.99,North,0,0.0,0.0,53,0.00,,,0.00,WUHU216HW,2013-03-17 20:21:00,
2013-03-17 13:26:00,66.2,48.2,29.99,North,0,0.0,0.0,52,0.00,,,0.00,WUHU216HW,2013-03-17 20:26:00,
2013-03-17 13:31:00,66.2,47.6,29.98,North,0,0.0,0.0,51,0.00,,,0.00,WUHU216HW,2013-03-17 20:31:00,
2013-03-17 13:36:00,66.6,47.5,29.98,North,0,0.0,0.0,50,0.00,,,0.00,WUHU216HW,2013-03-17 20:36:00,
2013-03-17 13:41:00,67.3,47.0,29.98,North,0,0.0,0.0,48,0.00,,,0.00,WUHU216HW,2013-03-17 20:41:00,
2013-03-17 13:46:00,67.5,46.5,29.98,North,0,0.0,0.0,47,0.00,,,0.00,WUHU216HW,2013-03-17 20:46:00,
2013-03-17 13:51:00,67.9,46.8,29.98,North,0,0.0,0.0,47,0.00,,,0.00,WUHU216HW,2013-03-17 20:51:00,
2013-03-17 13:56:00,67.9,45.6,29.97,North,0,0.0,0.0,45,0.00,,,0.00,WUHU216HW,2013-03-17 20:56:00,
2013-03-17 14:02:00,68.4,46.2,29.97,North,0,0.0,0.0,45,0.00,,,0.00,WUHU216HW,2013-03-17 21:02:00,
2013-03-17 14:07:00,68.8,45.9,29.97,North,0,0.0,0.0,44,0.00,,,0.00,WUHU216HW,2013-03-17 21:07:00,
2013-03-17 14:12:00,68.8,46.4,29.96,North,0,0.0,0.0,45,0.00,,,0.00,WUHU216HW,2013-03-17 21:12:00,
2013-03-17 14:17:00,68.9,46.0,29.96,North,0,0.0,0.0,44,0.00,,,0.00,WUHU216HW,2013-03-17 21:17:00,
2013-03-17 14:22:00,69.1,46.2,29.96,North,0,0.0,0.0,44,0.00,,,0.00,WUHU216HW,2013-03-17 21:22:00,
2013-03-17 14:27:00,69.5,46.5,29.96,North,0,0.0,0.0,44,0.00,,,0.00,WUHU216HW,2013-03-17 21:27:00,
2013-03-17 14:32:00,69.5,45.9,29.96,North,0,0.0,0.0,43,0.00,,,0.00,WUHU216HW,2013-03-17 21:32:00,
2013-03-17 14:37:00,69.5,47.1,29.95,North,0,0.0,0.0,45,0.00,,,0.00,WUHU216HW,2013-03-17 21:37:00,
2013-03-17 14:42:00,69.5,46.5,29.95,North,0,0.0,0.0,44,0.00,,,0.00,WUHU216HW,2013-03-17 21:42:00,
2013-03-17 14:48:00,69.7,46.1,29.95,North,0,0.0,0.0,43,0.00,,,0.00,WUHU216HW,2013-03-17 21:48:00,
2013-03-17 14:53:00,70.0,47.0,29.95,North,0,0.0,0.0,44,0.00,,,0.00,WUHU216HW,2013-03-17 21:53:00,
2013-03-17 14:58:00,70.4,47.4,29.95,North,0,0.0,0.0,44,0.00,,,0.00,WUHU216HW,2013-03-17 21:58:00,
2013-03-17 15:03:00,70.7,47.1,29.95,North,0,0.0,0.0,43,0.00,,,0.00,WUHU216HW,2013-03-17 22:03:00,
2013-03-17 15:08:00,70.6,46.9,29.95,North,0,0.0,0.0,43,0.00,,,0.00,WUHU216HW,2013-03-17 22:08:00,
2013-03-17 15:13:00,70.6,46.9,29.94,North,0,0.0,0.0,43,0.00,,,0.00,WUHU216HW,2013-03-17 22:13:00,
2013-03-17 15:18:00,70.9,47.3,29.94,North,0,0.0,0.0,43,0.00,,,0.00,WUHU216HW,2013-03-17 22:18:00,
2013-03-17 15:23:00,71.3,47.0,29.94,North,0,0.0,0.0,42,0.00,,,0.00,WUHU216HW,2013-03-17 22:23:00,
2013-03-17 15:28:00,71.1,46.8,29.93,North,0,0.0,0.0,42,0.00,,,0.00,WUHU216HW,2013-03-17 22:28:00,
2013-03-17 15:33:00,70.7,47.1,29.93,North,0,0.0,0.0,43,0.00,,,0.00,WUHU216HW,2013-03-17 22:33:00,
2013-03-17 15:38:00,70.7,47.6,29.93,North,0,0.0,0.0,44,0.00,,,0.00,WUHU216HW,2013-03-17 22:38:00,
2013-03-17 15:43:00,70.9,47.3,29.93,North,0,0.0,0.0,43,0.00,,,0.00,WUHU216HW,2013-03-17 22:43:00,
2013-03-17 15:48:00,71.1,47.3,29.93,North,0,0.0,0.0,43,0.00,,,0.00,WUHU216HW,2013-03-17 22:48:00,
2013-03-17 15:53:00,71.5,47.7,29.93,North,0,0.0,0.0,43,0.00,,,0.00,WUHU216HW,2013-03-17 22:53:00,
2013-03-17 15:59:00,71.5,47.1,29.93,North,0,0.0,0.0,42,0.00,,,0.00,WUHU216HW,2013-03-17 22:59:00,
2013-03-17 16:04:00,71.3,47.0,29.93,North,0,0.0,0.0,42,0.00,,,0.00,WUHU216HW,2013-03-17 23:04:00,
2013-03-17 16:09:00,71.3,46.4,29.92,North,0,0.0,0.0,41,0.00,,,0.00,WUHU216HW,2013-03-17 23:09:00,
2013-03-17 16:14:00,71.6,47.3,29.92,North,0,0.0,0.0,42,0.00,,,0.00,WUHU216HW,2013-03-17 23:14:00,
2013-03-17 16:19:00,71.8,48.1,29.92,North,0,0.0,0.0,43,0.00,,,0.00,WUHU216HW,2013-03-17 23:19:00,
2013-03-17 16:24:00,71.8,47.4,29.92,North,0,0.0,0.0,42,0.00,,,0.00,WUHU216HW,2013-03-17 23:24:00,
2013-03-17 16:29:00,72.0,47.6,29.92,North,0,0.0,0.0,42,0.00,,,0.00,WUHU216HW,2013-03-17 23:29:00,
2013-03-17 16:34:00,72.2,47.8,29.92,North,0,0.0,0.0,42,0.00,,,0.00,WUHU216HW,2013-03-17 23:34:00,
2013-03-17 16:39:00,72.4,47.9,29.92,North,0,0.0,0.0,42,0.00,,,0.00,WUHU216HW,2013-03-17 23:39:00,
2013-03-17 16:44:00,72.0,47.6,29.92,North,0,0.0,0.0,42,0.00,,,0.00,WUHU216HW,2013-03-17 23:44:00,
2013-03-17 16:49:00,71.6,47.9,29.92,North,0,0.0,0.0,43,0.00,,,0.00,WUHU216HW,2013-03-17 23:49:00,
2013-03-17 16:54:00,71.1,48.0,29.92,North,0,0.0,0.0,44,0.00,,,0.00,WUHU216HW,2013-03-17 23:54:00,
2013-03-17 16:59:00,70.6,48.1,29.93,North,0,0.0,0.0,45,0.00,,,0.00,WUHU216HW,2013-03-17 23:59:00,
2013-03-17 17:05:00,70.2,47.8,29.93,North,0,0.0,0.0,45,0.00,,,0.00,WUHU216HW,2013-03-18 00:05:00,
2013-03-17 17:10:00,69.8,47.4,29.94,North,0,0.0,0.0,45,0.00,,,0.00,WUHU216HW,2013-03-18 00:10:00,
2013-03-17 17:15:00,68.9,46.6,29.94,North,0,0.0,0.0,45,0.00,,,0.00,WUHU216HW,2013-03-18 00:15:00,
2013-03-17 17:20:00,68.2,46.0,29.95,North,0,0.0,0.0,45,0.00,,,0.00,WUHU216HW,2013-03-18 00:20:00,
2013-03-17 17:25:00,67.7,46.1,29.93,North,0,0.0,0.0,46,0.00,,,0.00,WUHU216HW,2013-03-18 00:25:00,
2013-03-17 17:30:00,67.1,45.6,29.94,North,0,0.0,0.0,46,0.00,,,0.00,WUHU216HW,2013-03-18 00:30:00,
2013-03-17 17:35:00,66.8,45.9,29.94,North,0,0.0,0.0,47,0.00,,,0.00,WUHU216HW,2013-03-18 00:35:00,
2013-03-17 17:40:00,66.6,45.7,29.94,North,0,0.0,0.0,47,0.00,,,0.00,WUHU216HW,2013-03-18 00:40:00,
2013-03-17 17:45:00,66.4,45.5,29.94,North,0,0.0,0.0,47,0.00,,,0.00,WUHU216HW,2013-03-18 00:45:00,
2013-03-17 17:50:00,65.9,45.6,29.94,North,0,0.0,0.0,48,0.00,,,0.00,WUHU216HW,2013-03-18 00:50:00,
2013-03-17 17:55:00,65.5,45.8,29.94,North,0,0.0,0.0,49,0.00,,,0.00,WUHU216HW,2013-03-18 00:55:00,
2013-03-17 18:00:00,65.2,45.6,29.94,North,0,0.0,0.0,49,0.00,,,0.00,WUHU216HW,2013-03-18 01:00:00,
2013-03-17 18:05:00,64.8,45.2,29.94,North,0,0.0,0.0,49,0.00,,,0.00,WUHU216HW,2013-03-18 01:05:00,
2013-03-17 18:10:00,64.4,44.8,29.94,North,0,0.0,0.0,49,0.00,,,0.00,WUHU216HW,2013-03-18 01:10:00,
2013-03-17 18:16:00,63.9,44.3,29.93,North,0,0.0,0.0,49,0.00,,,0.00,WUHU216HW,2013-03-18 01:16:00,
2013-03-17 18:21:00,63.5,44.6,29.93,North,0,0.0,0.0,50,0.00,,,0.00,WUHU216HW,2013-03-18 01:21:00,
2013-03-17 18:26:00,63.4,43.8,29.94,North,0,0.0,0.0,49,0.00,,,0.00,WUHU216HW,2013-03-18 01:26:00,
2013-03-17 18:31:00,63.0,44.1,29.94,North,0,0.0,0.0,50,0.00,,,0.00,WUHU216HW,2013-03-18 01:31:00,
2013-03-17 18:36:00,63.0,44.1,29.94,North,0,0.0,0.0,50,0.00,,,0.00,WUHU216HW,2013-03-18 01:36:00,
2013-03-17 18:41:00,62.8,44.4,29.94,North,0,0.0,0.0,51,0.00,,,0.00,WUHU216HW,2013-03-18 01:41:00,
2013-03-17 18:47:00,62.6,44.2,29.94,North,0,0.0,0.0,51,0.00,,,0.00,WUHU216HW,2013-03-18 01:47:00,
2013-03-17 18:52:00,62.3,43.9,29.94,North,0,0.0,0.0,51,0.00,,,0.00,WUHU216HW,2013-03-18 01:52:00,
2013-03-17 18:57:00,61.9,43.6,29.94,North,0,0.0,0.0,51,0.00,,,0.00,WUHU216HW,2013-03-18 01:57:00,
2013-03-17 19:02:00,61.7,43.4,29.94,North,0,0.0,0.0,51,0.00,,,0.00,WUHU216HW,2013-03-18 02:02:00,
2013-03-17 19:07:00,61.6,43.3,29.94,North,0,0.0,0.0,51,0.00,,,0.00,WUHU216HW,2013-03-18 02:07:00,
2013-03-17 19:12:00,61.2,43.9,29.94,North,0,0.0,0.0,53,0.00,,,0.00,WUHU216HW,2013-03-18 02:12:00,
2013-03-17 19:17:00,60.8,44.6,29.94,North,0,0.0,0.0,55,0.00,,,0.00,WUHU216HW,2013-03-18 02:17:00,
2013-03-17 19:22:00,60.5,44.7,29.94,North,0,0.0,0.0,56,0.00,,,0.00,WUHU216HW,2013-03-18 02:22:00,
2013-03-17 19:27:00,60.1,44.8,29.94,North,0,0.0,0.0,57,0.00,,,0.00,WUHU216HW,2013-03-18 02:27:00,
2013-03-17 19:32:00,59.8,44.5,29.94,North,0,0.0,0.0,57,0.00,,,0.00,WUHU216HW,2013-03-18 02:32:00,
2013-03-17 19:37:00,59.6,44.7,29.94,North,0,0.0,0.0,58,0.00,,,0.00,WUHU216HW,2013-03-18 02:37:00,
2013-03-17 19:42:00,59.2,44.5,29.94,North,0,0.0,0.0,58,0.00,,,0.00,WUHU216HW,2013-03-18 02:42:00,
2013-03-17 19:47:00,58.9,44.1,29.94,North,0,0.0,0.0,58,0.00,,,0.00,WUHU216HW,2013-03-18 02:47:00,
2013-03-17 19:52:00,58.3,44.1,29.94,North,0,0.0,0.0,59,0.00,,,0.00,WUHU216HW,2013-03-18 02:52:00,
2013-03-17 19:57:00,57.8,44.0,29.94,North,0,0.0,0.0,60,0.00,,,0.00,WUHU216HW,2013-03-18 02:57:00,
2013-03-17 20:02:00,57.2,43.9,29.94,North,0,0.0,0.0,61,0.00,,,0.00,WUHU216HW,2013-03-18 03:02:00,
2013-03-17 20:07:00,56.9,44.0,29.94,North,0,0.0,0.0,62,0.00,,,0.00,WUHU216HW,2013-03-18 03:07:00,
2013-03-17 20:13:00,56.5,44.0,29.94,North,0,0.0,0.0,63,0.00,,,0.00,WUHU216HW,2013-03-18 03:13:00,
2013-03-17 20:18:00,56.3,43.9,29.95,North,0,0.0,0.0,63,0.00,,,0.00,WUHU216HW,2013-03-18 03:18:00,
2013-03-17 20:23:00,56.2,44.1,29.95,North,0,0.0,0.0,64,0.00,,,0.00,WUHU216HW,2013-03-18 03:23:00,
2013-03-17 20:28:00,55.8,43.7,29.95,North,0,0.0,0.0,64,0.00,,,0.00,WUHU216HW,2013-03-18 03:28:00,
2013-03-17 20:33:00,55.6,44.0,29.95,North,0,0.0,0.0,65,0.00,,,0.00,WUHU216HW,2013-03-18 03:33:00,
2013-03-17 20:38:00,55.4,43.8,29.95,North,0,0.0,0.0,65,0.00,,,0.00,WUHU216HW,2013-03-18 03:38:00,
2013-03-17 20:43:00,55.3,43.7,29.95,North,0,0.0,0.0,65,0.00,,,0.00,WUHU216HW,2013-03-18 03:43:00,
2013-03-17 20:48:00,55.1,43.9,29.95,North,0,0.0,0.0,66,0.00,,,0.00,WUHU216HW,2013-03-18 03:48:00,
2013-03-17 20:53:00,55.1,43.9,29.95,North,0,0.0,0.0,66,0.00,,,0.00,WUHU216HW,2013-03-18 03:53:00,
2013-03-17 20:58:00,55.1,43.9,29.95,North,0,0.0,0.0,66,0.00,,,0.00,WUHU216HW,2013-03-18 03:58:00,
2013-03-17 21:00:00,54.9,43.8,29.95,North,0,0.0,0.0,66,0.00,,,0.00,WUHU216HW,2013-03-18 04:00:00,
2013-03-17 21:03:00,54.9,43.8,29.95,North,0,0.0,0.0,66,0.00,,,0.00,WUHU216HW,2013-03-18 04:03:00,
2013-03-17 21:08:00,54.7,43.9,29.95,North,0,0.0,0.0,67,0.00,,,0.00,WUHU216HW,2013-03-18 04:08:00,
2013-03-17 21:13:00,54.5,44.2,29.95,North,0,0.0,0.0,68,0.00,,,0.00,WUHU216HW,2013-03-18 04:13:00,
2013-03-17 21:18:00,54.4,44.0,29.95,North,0,0.0,0.0,68,0.00,,,0.00,WUHU216HW,2013-03-18 04:18:00,
2013-03-17 21:23:00,54.2,43.8,29.96,North,0,0.0,0.0,68,0.00,,,0.00,WUHU216HW,2013-03-18 04:23:00,
2013-03-17 21:28:00,54.0,44.1,29.96,North,0,0.0,0.0,69,0.00,,,0.00,WUHU216HW,2013-03-18 04:28:00,
2013-03-17 21:33:00,54.0,44.1,29.96,North,0,0.0,0.0,69,0.00,,,0.00,WUHU216HW,2013-03-18 04:33:00,
2013-03-17 21:39:00,53.8,43.9,29.96,North,0,0.0,0.0,69,0.00,,,0.00,WUHU216HW,2013-03-18 04:39:00,
2013-03-17 21:44:00,53.6,43.8,29.96,North,0,0.0,0.0,69,0.00,,,0.00,WUHU216HW,2013-03-18 04:44:00,
2013-03-17 21:49:00,53.5,43.9,29.97,North,0,0.0,0.0,70,0.00,,,0.00,WUHU216HW,2013-03-18 04:49:00,
2013-03-17 21:54:00,53.3,43.7,29.97,North,0,0.0,0.0,70,0.00,,,0.00,WUHU216HW,2013-03-18 04:54:00,
2013-03-17 21:59:00,53.3,43.7,29.97,North,0,0.0,0.0,70,0.00,,,0.00,WUHU216HW,2013-03-18 04:59:00,
2013-03-17 22:04:00,52.9,43.5,29.97,North,0,0.0,0.0,70,0.00,,,0.00,WUHU216HW,2013-03-18 05:04:00,
2013-03-17 22:09:00,52.9,43.8,29.97,North,0,0.0,0.0,71,0.00,,,0.00,WUHU216HW,2013-03-18 05:09:00,
2013-03-17 22:14:00,52.7,43.7,29.97,North,0,0.0,0.0,71,0.00,,,0.00,WUHU216HW,2013-03-18 05:14:00,
2013-03-17 22:19:00,52.6,43.8,29.97,North,0,0.0,0.0,72,0.00,,,0.00,WUHU216HW,2013-03-18 05:19:00,
2013-03-17 22:24:00,52.6,43.8,29.97,North,0,0.0,0.0,72,0.00,,,0.00,WUHU216HW,2013-03-18 05:24:00,
2013-03-17 22:29:00,52.4,43.3,29.97,North,0,0.0,0.0,71,0.00,,,0.00,WUHU216HW,2013-03-18 05:29:00,
2013-03-17 22:34:00,52.4,43.3,29.97,North,0,0.0,0.0,71,0.00,,,0.00,WUHU216HW,2013-03-18 05:34:00,
2013-03-17 22:39:00,52.2,43.1,29.97,North,0,0.0,0.0,71,0.00,,,0.00,WUHU216HW,2013-03-18 05:39:00,
2013-03-17 22:44:00,52.2,43.5,29.98,North,0,0.0,0.0,72,0.00,,,0.00,WUHU216HW,2013-03-18 05:44:00,
2013-03-17 22:49:00,52.0,43.3,29.98,North,0,0.0,0.0,72,0.00,,,0.00,WUHU216HW,2013-03-18 05:49:00,
2013-03-17 22:54:00,51.8,43.2,29.98,North,0,0.0,0.0,72,0.00,,,0.00,WUHU216HW,2013-03-18 05:54:00,
2013-03-17 22:59:00,51.7,43.0,29.98,North,0,0.0,0.0,72,0.00,,,0.00,WUHU216HW,2013-03-18 05:59:00,
2013-03-17 23:05:00,51.5,42.9,29.98,North,0,0.0,0.0,72,0.00,,,0.00,WUHU216HW,2013-03-18 06:05:00,
2013-03-17 23:10:00,51.5,42.9,29.98,North,0,0.0,0.0,72,0.00,,,0.00,WUHU216HW,2013-03-18 06:10:00,
2013-03-17 23:15:00,51.5,42.9,29.98,North,0,0.0,0.0,72,0.00,,,0.00,WUHU216HW,2013-03-18 06:15:00,
2013-03-17 23:20:00,51.3,42.7,29.98,North,0,0.0,0.0,72,0.00,,,0.00,WUHU216HW,2013-03-18 06:20:00,
2013-03-17 23:25:00,51.1,42.5,29.98,North,0,0.0,0.0,72,0.00,,,0.00,WUHU216HW,2013-03-18 06:25:00,
2013-03-17 23:30:00,51.1,42.5,29.98,North,0,0.0,0.0,72,0.00,,,0.00,WUHU216HW,2013-03-18 06:30:00,
2013-03-17 23:35:00,50.9,42.6,29.98,North,0,0.0,0.0,73,0.00,,,0.00,WUHU216HW,2013-03-18 06:35:00,
2013-03-17 23:40:00,50.8,42.1,29.98,North,0,0.0,0.0,72,0.00,,,0.00,WUHU216HW,2013-03-18 06:40:00,
2013-03-17 23:45:00,50.8,42.4,29.98,North,0,0.0,0.0,73,0.00,,,0.00,WUHU216HW,2013-03-18 06:45:00,
2013-03-17 23:50:00,50.6,42.2,29.97,North,0,0.0,0.0,73,0.00,,,0.00,WUHU216HW,2013-03-18 06:50:00,
2013-03-17 23:55:00,50.4,42.0,29.97,North,0,0.0,0.0,73,0.00,,,0.00,WUHU216HW,2013-03-18 06:55:00,